createdAt,value
2022-08-17T00:00:05.725Z,71.88
2022-08-17T00:03:04.514Z,69.65
2022-08-17T00:05:38.069Z,80.57
2022-08-17T00:08:05.339Z,80.00
2022-08-17T00:10:32.623Z,75.05
2022-08-17T00:13:00.650Z,75.28
2022-08-17T00:15:27.704Z,71.50
2022-08-17T00:17:54.661Z,74.45
2022-08-17T00:20:23.390Z,76.22
2022-08-17T00:23:16.029Z,70.13
2022-08-17T00:25:47.250Z,76.65
2022-08-17T00:28:16.199Z,83.05
2022-08-17T00:30:52.821Z,81.72
2022-08-17T00:33:25.464Z,92.40
2022-08-17T00:35:53.396Z,92.80
2022-08-17T00:38:21.079Z,86.10
2022-08-17T00:40:52.666Z,85.55
2022-08-17T00:43:30.408Z,98.13
2022-08-17T00:45:58.666Z,99.38
2022-08-17T00:48:30.189Z,97.28
2022-08-17T00:51:14.476Z,97.10
2022-08-17T00:53:45.204Z,105.05
2022-08-17T00:56:18.593Z,94.03
2022-08-17T00:58:45.665Z,104.65
2022-08-17T01:01:21.994Z,94.85
2022-08-17T01:03:52.563Z,91.75
2022-08-17T01:06:23.996Z,113.10
2022-08-17T01:08:57.517Z,113.53
2022-08-17T01:11:25.732Z,105.25
2022-08-17T01:13:52.776Z,113.90
2022-08-17T01:16:24.858Z,107.35
2022-08-17T01:18:54.910Z,105.93
2022-08-17T01:21:32.576Z,111.50
2022-08-17T01:24:00.586Z,107.90
2022-08-17T01:26:30.088Z,111.40
2022-08-17T01:28:57.185Z,123.28
2022-08-17T01:31:28.718Z,111.80
2022-08-17T01:33:58.289Z,103.47
2022-08-17T01:36:25.216Z,96.00
2022-08-17T01:38:52.090Z,97.68
2022-08-17T01:41:21.783Z,107.45
2022-08-17T01:43:56.843Z,114.82
2022-08-17T01:46:28.124Z,119.47
2022-08-17T01:48:57.553Z,110.20
2022-08-17T01:51:32.959Z,116.22
2022-08-17T01:54:06.578Z,103.20
2022-08-17T01:56:36.751Z,97.40
2022-08-17T01:59:04.618Z,85.25
2022-08-17T02:01:33.778Z,69.75
2022-08-17T02:04:02.164Z,62.70
2022-08-17T02:06:45.337Z,62.65
2022-08-17T02:09:19.242Z,62.58
2022-08-17T02:11:50.423Z,69.45
2022-08-17T02:14:18.208Z,58.78
2022-08-17T02:16:45.143Z,66.70
2022-08-17T02:19:15.871Z,71.80
2022-08-17T02:21:47.837Z,68.15
2022-08-17T02:25:00.358Z,74.32
2022-08-17T02:27:15.022Z,77.38
2022-08-17T02:29:41.870Z,69.65
2022-08-17T02:32:27.871Z,79.88
2022-08-17T02:34:59.273Z,82.30
2022-08-17T02:37:27.590Z,85.20
2022-08-17T02:39:57.143Z,77.75
2022-08-17T02:42:33.947Z,73.93
2022-08-17T02:47:28.907Z,73.80
2022-08-17T02:49:56.196Z,73.10
2022-08-17T02:52:42.684Z,65.13
2022-08-17T02:55:18.244Z,64.60
2022-08-17T02:57:45.631Z,59.20
2022-08-17T03:00:19.787Z,61.30
2022-08-17T03:02:47.017Z,57.10
2022-08-17T03:05:17.181Z,53.75
2022-08-17T03:07:44.255Z,58.67
2022-08-17T03:10:11.785Z,58.80
2022-08-17T03:12:41.664Z,59.55
2022-08-17T03:15:12.851Z,55.63
2022-08-17T03:17:39.815Z,52.53
2022-08-17T03:20:08.532Z,51.95
2022-08-17T03:22:41.247Z,54.50
2022-08-17T03:25:19.468Z,54.90
2022-08-17T03:27:50.283Z,55.87
2022-08-17T03:30:18.544Z,49.58
2022-08-17T03:32:50.452Z,48.55
2022-08-17T03:35:20.974Z,49.58
2022-08-17T03:37:47.890Z,65.35
2022-08-17T03:40:55.607Z,76.78
2022-08-17T03:43:16.063Z,98.80
2022-08-17T03:46:02.581Z,125.53
2022-08-17T03:48:48.452Z,124.18
2022-08-17T03:54:28.809Z,119.05
2022-08-17T03:57:08.694Z,93.50
2022-08-17T03:59:36.935Z,74.47
2022-08-17T04:02:26.185Z,88.38
2022-08-17T04:04:54.192Z,97.95
2022-08-17T04:07:23.621Z,80.82
2022-08-17T04:09:50.820Z,78.18
2022-08-17T04:12:19.916Z,81.63
2022-08-17T04:14:53.029Z,82.77
2022-08-17T04:17:27.519Z,74.93
2022-08-17T04:19:55.564Z,71.70
2022-08-17T04:22:30.997Z,60.50
2022-08-17T04:25:16.845Z,60.80
2022-08-17T04:27:43.867Z,77.55
2022-08-17T04:30:11.410Z,97.17
2022-08-17T04:33:05.915Z,106.65
2022-08-17T04:35:39.886Z,91.23
2022-08-17T04:38:25.193Z,94.40
2022-08-17T04:41:11.102Z,127.32
2022-08-17T04:46:09.619Z,121.97
2022-08-17T04:48:40.156Z,123.72
2022-08-17T04:51:11.278Z,127.72
2022-08-17T04:53:40.180Z,137.13
2022-08-17T04:56:07.329Z,138.95
2022-08-17T04:58:34.283Z,155.52
2022-08-17T05:01:01.689Z,155.40
2022-08-17T05:03:28.784Z,161.18
2022-08-17T05:05:55.799Z,164.18
2022-08-17T05:08:22.748Z,163.63
2022-08-17T05:10:50.186Z,164.90
2022-08-17T05:13:20.966Z,150.35
2022-08-17T05:15:49.597Z,174.63
2022-08-17T05:18:17.473Z,151.30
2022-08-17T05:20:44.406Z,161.52
2022-08-17T05:23:13.998Z,165.20
2022-08-17T05:25:44.118Z,168.82
2022-08-17T05:28:16.148Z,146.75
2022-08-17T05:30:44.045Z,146.95
2022-08-17T05:33:13.995Z,144.15
2022-08-17T05:35:47.991Z,150.20
2022-08-17T05:38:16.818Z,138.70
2022-08-17T05:40:44.574Z,140.73
2022-08-17T05:43:15.011Z,136.32
2022-08-17T05:45:55.820Z,137.00
2022-08-17T05:48:35.429Z,119.03
2022-08-17T05:51:22.133Z,126.30
2022-08-17T05:54:08.606Z,89.85
2022-08-17T05:56:47.129Z,72.07
2022-08-17T05:59:35.476Z,66.65
2022-08-17T06:02:44.174Z,67.32
2022-08-17T06:05:37.150Z,64.10
2022-08-17T06:08:23.595Z,66.57
2022-08-17T06:11:06.141Z,61.20
2022-08-17T06:13:48.099Z,54.28
2022-08-17T06:16:33.341Z,44.47
2022-08-17T06:19:15.478Z,58.95
2022-08-17T06:21:46.606Z,54.45
2022-08-17T06:24:38.680Z,56.03
2022-08-17T06:27:35.859Z,58.78
2022-08-17T06:30:16.866Z,47.55
2022-08-17T06:32:48.729Z,44.33
2022-08-17T06:35:22.439Z,41.03
2022-08-17T06:38:36.904Z,50.30
2022-08-17T06:41:21.957Z,42.95
2022-08-17T06:44:47.635Z,38.10
2022-08-17T06:47:13.602Z,36.97
2022-08-17T06:49:55.600Z,43.53
2022-08-17T06:52:46.799Z,45.33
2022-08-17T06:55:40.044Z,38.08
2022-08-17T06:58:16.180Z,36.45
2022-08-17T07:00:47.427Z,41.85
2022-08-17T07:03:38.143Z,32.88
2022-08-17T07:06:14.413Z,39.17
2022-08-17T07:08:55.560Z,32.25
2022-08-17T07:11:47.671Z,31.35
2022-08-17T07:14:33.183Z,30.48
2022-08-17T07:17:06.657Z,32.35
2022-08-17T07:19:36.502Z,27.80
2022-08-17T07:22:03.737Z,29.05
2022-08-17T07:24:37.310Z,26.77
2022-08-17T07:27:11.649Z,30.13
2022-08-17T07:30:10.583Z,25.20
2022-08-17T07:32:45.474Z,27.65
2022-08-17T07:35:21.089Z,24.30
2022-08-17T07:37:54.057Z,24.10
2022-08-17T07:40:23.735Z,22.33
2022-08-17T07:43:23.071Z,24.30
2022-08-17T07:46:09.958Z,20.25
2022-08-17T07:48:39.522Z,18.70
2022-08-17T07:51:25.314Z,17.95
2022-08-17T07:53:54.483Z,18.83
2022-08-17T07:56:41.623Z,16.55
2022-08-17T07:59:13.610Z,20.27
2022-08-17T08:01:45.148Z,17.13
2022-08-17T08:05:00.201Z,20.75
2022-08-17T08:07:26.797Z,19.10
2022-08-17T08:10:05.545Z,17.95
2022-08-17T08:12:43.140Z,22.40
2022-08-17T08:15:12.749Z,23.13
2022-08-17T08:17:56.197Z,22.23
2022-08-17T08:20:51.698Z,20.08
2022-08-17T08:23:57.453Z,24.88
2022-08-17T08:26:33.855Z,25.95
2022-08-17T08:29:31.721Z,25.08
2022-08-17T08:32:29.358Z,24.48
2022-08-17T08:35:31.483Z,24.17
2022-08-17T08:38:16.779Z,21.42
2022-08-17T08:41:21.552Z,28.27
2022-08-17T08:44:00.716Z,25.48
2022-08-17T08:46:53.323Z,25.58
2022-08-17T08:50:03.854Z,26.30
2022-08-17T08:52:50.212Z,26.10
2022-08-17T08:55:23.232Z,22.40
2022-08-17T08:58:33.751Z,28.95
2022-08-17T09:01:17.142Z,25.40
2022-08-17T09:04:24.189Z,22.80
2022-08-17T09:07:13.113Z,23.33
2022-08-17T09:09:49.585Z,25.98
2022-08-17T09:12:33.972Z,26.00
2022-08-17T09:15:20.634Z,22.85
2022-08-17T09:18:30.373Z,24.75
2022-08-17T09:20:59.579Z,24.92
2022-08-17T09:23:36.628Z,26.30
2022-08-17T09:26:17.059Z,24.90
2022-08-17T09:28:53.595Z,24.23
2022-08-17T09:31:48.785Z,29.30
2022-08-17T09:34:21.189Z,28.58
2022-08-17T09:37:03.859Z,33.58
2022-08-17T09:39:41.586Z,32.47
2022-08-17T09:42:14.739Z,36.50
2022-08-17T09:44:52.788Z,39.85
2022-08-17T09:47:40.616Z,41.78
2022-08-17T09:50:13.403Z,39.28
2022-08-17T09:52:42.942Z,48.78
2022-08-17T09:55:10.101Z,45.60
2022-08-17T09:58:14.716Z,48.85
2022-08-17T10:00:54.146Z,48.65
2022-08-17T10:03:49.039Z,48.75
2022-08-17T10:06:30.338Z,51.88
2022-08-17T10:09:14.396Z,49.50
2022-08-17T10:12:17.175Z,49.72
2022-08-17T10:15:07.915Z,55.47
2022-08-17T10:18:08.476Z,55.28
2022-08-17T10:21:32.334Z,48.50
2022-08-17T10:24:34.397Z,49.80
2022-08-17T10:27:04.345Z,48.78
2022-08-17T10:29:48.494Z,44.45
2022-08-17T10:32:35.053Z,42.92
2022-08-17T10:35:29.449Z,41.17
2022-08-17T10:38:33.135Z,37.95
2022-08-17T10:41:02.918Z,38.47
2022-08-17T10:44:37.347Z,39.10
2022-08-17T10:46:57.596Z,40.95
2022-08-17T10:49:29.427Z,41.13
2022-08-17T10:51:59.923Z,39.88
2022-08-17T10:54:41.611Z,42.60
2022-08-17T10:57:34.322Z,49.08
2022-08-17T11:00:02.560Z,43.05
2022-08-17T11:02:49.872Z,45.28
2022-08-17T11:05:46.937Z,45.65
2022-08-17T11:08:39.189Z,40.58
2022-08-17T11:11:38.456Z,45.42
2022-08-17T11:14:41.189Z,47.13
2022-08-17T11:17:45.155Z,44.55
2022-08-17T11:20:21.081Z,51.08
2022-08-17T11:22:48.290Z,48.80
2022-08-17T11:26:04.050Z,47.55
2022-08-17T11:28:52.480Z,54.13
2022-08-17T11:31:38.417Z,51.28
2022-08-17T11:34:28.331Z,51.85
2022-08-17T11:37:04.255Z,51.05
2022-08-17T11:39:34.366Z,54.85
2022-08-17T11:42:38.789Z,53.50
2022-08-17T11:45:33.259Z,50.22
2022-08-17T11:48:30.271Z,51.20
2022-08-17T11:51:32.452Z,53.63
2022-08-17T11:56:52.910Z,46.80
2022-08-17T11:59:36.399Z,47.28
2022-08-17T12:02:31.392Z,52.55
2022-08-17T12:05:17.001Z,50.10
2022-08-17T12:07:48.819Z,50.65
2022-08-17T12:10:21.521Z,53.20
2022-08-17T12:12:53.093Z,53.45
2022-08-17T12:15:35.946Z,54.42
2022-08-17T12:18:03.195Z,50.22
2022-08-17T12:20:32.942Z,49.55
2022-08-17T12:23:24.296Z,49.05
2022-08-17T12:26:08.979Z,46.83
2022-08-17T12:28:38.884Z,45.88
2022-08-17T12:31:26.236Z,42.10
2022-08-17T12:33:54.112Z,38.30
2022-08-17T12:36:28.244Z,37.97
2022-08-17T12:39:14.024Z,35.22
2022-08-17T12:41:44.907Z,32.70
2022-08-17T12:44:12.335Z,32.47
2022-08-17T12:47:19.455Z,29.08
2022-08-17T12:49:51.439Z,29.92
2022-08-17T12:52:28.389Z,27.50
2022-08-17T12:55:02.930Z,27.52
2022-08-17T12:57:37.982Z,27.73
2022-08-17T13:00:21.042Z,27.73
2022-08-17T13:03:16.485Z,26.85
2022-08-17T13:05:56.932Z,27.40
2022-08-17T13:08:36.050Z,27.98
2022-08-17T13:11:08.467Z,29.17
2022-08-17T13:13:38.981Z,28.88
2022-08-17T13:16:12.024Z,28.60
2022-08-17T13:18:52.199Z,28.30
2022-08-17T13:21:19.098Z,30.02
2022-08-17T13:24:13.843Z,30.75
2022-08-17T13:26:54.411Z,31.58
2022-08-17T13:29:29.096Z,33.58
2022-08-17T13:32:12.951Z,33.23
2022-08-17T13:35:12.676Z,35.55
2022-08-17T13:37:36.097Z,35.13
2022-08-17T13:40:09.279Z,33.85
2022-08-17T13:42:52.614Z,33.72
2022-08-17T13:45:36.524Z,35.90
2022-08-17T13:48:13.475Z,37.92
2022-08-17T13:50:56.429Z,37.30
2022-08-17T13:53:27.035Z,37.97
2022-08-17T13:56:01.473Z,36.50
2022-08-17T13:58:35.558Z,36.78
2022-08-17T14:01:41.165Z,35.47
2022-08-17T14:04:20.780Z,34.10
2022-08-17T14:06:57.795Z,33.05
2022-08-17T14:09:37.538Z,32.50
2022-08-17T14:12:12.738Z,34.20
2022-08-17T14:14:40.917Z,33.97
2022-08-17T14:17:07.974Z,35.35
2022-08-17T14:19:35.365Z,36.05
2022-08-17T14:22:02.902Z,36.55
2022-08-17T14:24:34.250Z,33.90
2022-08-17T14:27:03.540Z,31.48
2022-08-17T14:29:32.511Z,30.92
2022-08-17T14:32:05.123Z,30.05
2022-08-17T14:34:32.712Z,28.23
2022-08-17T14:36:59.564Z,26.40
2022-08-17T14:39:26.563Z,25.60
2022-08-17T14:41:53.560Z,24.75
2022-08-17T14:44:20.464Z,23.38
2022-08-17T14:46:49.151Z,20.42
2022-08-17T14:49:16.180Z,20.95
2022-08-17T14:51:43.733Z,22.10
2022-08-17T14:54:33.227Z,20.52
2022-08-17T14:57:23.392Z,19.88
2022-08-17T14:59:52.338Z,21.45
2022-08-17T15:02:30.128Z,20.70
2022-08-17T15:05:06.039Z,20.10
2022-08-17T15:07:32.956Z,20.85
2022-08-17T15:10:01.431Z,19.50
2022-08-17T15:12:33.394Z,20.27
2022-08-17T15:15:01.983Z,20.90
2022-08-17T15:17:44.781Z,20.35
2022-08-17T15:20:19.654Z,21.40
2022-08-17T15:22:49.912Z,19.67
2022-08-17T15:25:19.040Z,18.15
2022-08-17T15:27:46.338Z,20.40
2022-08-17T15:30:13.795Z,20.27
2022-08-17T15:32:51.217Z,20.67
2022-08-17T15:35:27.945Z,19.23
2022-08-17T15:38:10.526Z,18.35
2022-08-17T15:40:44.331Z,16.67
2022-08-17T15:43:27.976Z,17.02
2022-08-17T15:46:18.931Z,17.92
2022-08-17T15:48:51.762Z,17.65
2022-08-17T15:51:24.198Z,17.05
2022-08-17T15:53:54.591Z,18.45
2022-08-17T15:56:21.920Z,18.88
2022-08-17T15:58:49.782Z,19.05
2022-08-17T16:03:01.885Z,20.42
2022-08-17T16:04:14.945Z,18.85
2022-08-17T16:06:53.785Z,18.20
2022-08-17T16:09:20.640Z,19.70
2022-08-17T16:11:53.667Z,18.23
2022-08-17T16:14:20.759Z,17.67
2022-08-17T16:16:47.714Z,20.17
2022-08-17T16:19:14.823Z,19.38
2022-08-17T16:21:42.823Z,21.17
2022-08-17T16:24:13.088Z,21.55
2022-08-17T16:26:42.394Z,20.95
2022-08-17T16:29:09.326Z,20.00
2022-08-17T16:31:37.680Z,20.95
2022-08-17T16:34:17.971Z,21.63
2022-08-17T16:36:55.456Z,23.38
2022-08-17T16:39:29.004Z,21.48
2022-08-17T16:41:57.569Z,21.80
2022-08-17T16:44:27.438Z,21.77
2022-08-17T16:46:54.630Z,21.67
2022-08-17T16:49:27.618Z,20.42
2022-08-17T16:52:07.019Z,19.55
2022-08-17T16:54:35.259Z,22.20
2022-08-17T16:57:04.981Z,21.85
2022-08-17T16:59:40.258Z,24.30
2022-08-17T17:02:15.480Z,25.65
2022-08-17T17:05:14.344Z,26.27
2022-08-17T17:07:50.834Z,27.15
2022-08-17T17:10:22.276Z,28.48
2022-08-17T17:13:03.774Z,29.85
2022-08-17T17:15:57.574Z,30.58
2022-08-17T17:18:41.565Z,31.00
2022-08-17T17:21:16.944Z,26.52
2022-08-17T17:26:53.877Z,21.20
2022-08-17T17:29:23.833Z,15.13
2022-08-17T17:32:17.272Z,14.05
2022-08-17T17:34:50.522Z,11.95
2022-08-17T17:37:24.580Z,10.70
2022-08-17T17:39:58.817Z,9.40
2022-08-17T17:42:28.932Z,9.73
2022-08-17T17:45:31.351Z,7.65
2022-08-17T17:47:58.579Z,7.97
2022-08-17T17:50:37.857Z,7.45
2022-08-17T17:53:12.357Z,8.52
2022-08-17T17:56:06.468Z,8.48
2022-08-17T17:59:12.660Z,9.35
2022-08-17T18:02:03.884Z,9.55
2022-08-17T18:04:47.947Z,10.90
2022-08-17T18:07:22.900Z,11.35
2022-08-17T18:12:40.535Z,18.25
2022-08-17T18:15:29.614Z,21.60
2022-08-17T18:18:23.339Z,16.27
2022-08-17T18:20:53.751Z,17.60
2022-08-17T18:23:28.170Z,18.73
2022-08-17T18:25:56.623Z,15.60
2022-08-17T18:28:28.296Z,16.30
2022-08-17T18:31:18.312Z,16.92
2022-08-17T18:33:49.332Z,17.35
2022-08-17T18:36:36.386Z,17.77
2022-08-17T18:39:28.354Z,18.65
2022-08-17T18:41:57.713Z,18.50
2022-08-17T18:44:29.556Z,20.58
2022-08-17T18:47:11.575Z,18.95
2022-08-17T18:49:38.808Z,17.20
2022-08-17T18:52:17.001Z,17.60
2022-08-17T18:55:08.896Z,16.65
2022-08-17T18:57:44.436Z,15.32
2022-08-17T19:00:18.387Z,16.00
2022-08-17T19:03:20.536Z,17.20
2022-08-17T19:05:50.326Z,15.63
2022-08-17T19:08:28.404Z,17.52
2022-08-17T19:11:23.771Z,15.75
2022-08-17T19:14:06.516Z,15.03
2022-08-17T19:16:50.936Z,16.15
2022-08-17T19:19:34.379Z,13.55
2022-08-17T19:22:17.002Z,13.15
2022-08-17T19:25:16.242Z,14.27
2022-08-17T19:27:57.456Z,16.45
2022-08-17T19:30:25.617Z,21.15
2022-08-17T19:32:53.089Z,11.80
2022-08-17T19:35:24.654Z,13.57
2022-08-17T19:38:13.166Z,11.98
2022-08-17T19:41:15.310Z,11.90
2022-08-17T19:43:57.587Z,13.57
2022-08-17T19:46:59.512Z,15.23
2022-08-17T19:49:46.411Z,12.90
2022-08-17T19:52:34.542Z,13.65
2022-08-17T19:55:09.399Z,12.20
2022-08-17T19:58:17.930Z,13.15
2022-08-17T20:00:51.326Z,14.77
2022-08-17T20:03:47.994Z,18.42
2022-08-17T20:06:15.312Z,20.70
2022-08-17T20:09:03.772Z,23.42
2022-08-17T20:11:38.455Z,26.95
2022-08-17T20:14:13.120Z,21.87
2022-08-17T20:16:40.303Z,24.47
2022-08-17T20:19:30.326Z,21.58
2022-08-17T20:22:29.244Z,21.08
2022-08-17T20:25:06.349Z,18.55
2022-08-17T20:28:05.552Z,21.42
2022-08-17T20:30:37.919Z,22.48
2022-08-17T20:33:08.462Z,25.65
2022-08-17T20:35:59.311Z,25.15
2022-08-17T20:38:44.352Z,25.52
2022-08-17T20:41:17.893Z,20.90
2022-08-17T20:43:52.252Z,21.33
2022-08-17T20:46:37.870Z,20.45
2022-08-17T20:49:44.660Z,19.25
2022-08-17T20:52:15.545Z,19.17
2022-08-17T20:54:48.827Z,18.92
2022-08-17T20:57:34.334Z,18.02
2022-08-17T21:00:18.263Z,17.92
2022-08-17T21:02:50.179Z,19.55
2022-08-17T21:05:46.460Z,21.10
2022-08-17T21:08:29.610Z,19.23
2022-08-17T21:11:00.045Z,18.38
2022-08-17T21:13:40.294Z,20.35
2022-08-17T21:16:38.724Z,19.10
2022-08-17T21:19:54.174Z,20.13
2022-08-17T21:22:51.942Z,25.33
2022-08-17T21:25:21.885Z,23.38
2022-08-17T21:28:29.973Z,22.60
2022-08-17T21:31:08.358Z,22.60
2022-08-17T21:33:40.007Z,25.83
2022-08-17T21:36:12.789Z,26.23
2022-08-17T21:38:42.688Z,23.58
2022-08-17T21:41:19.303Z,23.85
2022-08-17T21:44:05.452Z,22.25
2022-08-17T21:46:37.630Z,22.60
2022-08-17T21:49:13.575Z,24.35
2022-08-17T21:51:54.172Z,26.88
2022-08-17T21:54:38.659Z,23.65
2022-08-17T21:57:14.543Z,24.98
2022-08-17T21:59:43.738Z,24.33
2022-08-17T22:02:19.810Z,22.70
2022-08-17T22:05:16.646Z,22.92
2022-08-17T22:07:46.307Z,23.40
2022-08-17T22:10:30.673Z,24.55
2022-08-17T22:13:17.410Z,25.70
2022-08-17T22:15:53.612Z,24.20
2022-08-17T22:18:27.471Z,27.40
2022-08-17T22:20:57.145Z,27.33
2022-08-17T22:23:47.723Z,26.63
2022-08-17T22:26:16.790Z,29.60
2022-08-17T22:28:53.277Z,27.30
2022-08-17T22:31:22.974Z,29.95
2022-08-17T22:34:09.458Z,34.33
2022-08-17T22:36:39.055Z,29.42
2022-08-17T22:39:08.928Z,38.33
2022-08-17T22:41:50.756Z,34.00
2022-08-17T22:44:20.380Z,30.38
2022-08-17T22:46:59.266Z,31.17
2022-08-17T22:49:29.281Z,28.85
2022-08-17T22:52:06.429Z,30.83
2022-08-17T22:54:52.437Z,29.38
2022-08-17T22:57:57.559Z,29.58
2022-08-17T23:00:45.635Z,29.85
2022-08-17T23:03:19.666Z,35.47
2022-08-17T23:06:08.159Z,36.13
2022-08-17T23:08:48.383Z,37.45
2022-08-17T23:11:15.444Z,34.50
2022-08-17T23:13:42.368Z,37.00
2022-08-17T23:16:09.308Z,40.10
2022-08-17T23:18:37.342Z,35.35
2022-08-17T23:21:05.692Z,35.80
2022-08-17T23:23:33.769Z,33.20
2022-08-17T23:26:01.749Z,36.42
2022-08-17T23:28:28.682Z,40.22
2022-08-17T23:30:56.367Z,48.00
2022-08-17T23:33:30.575Z,39.85
2022-08-17T23:36:00.209Z,40.05
2022-08-17T23:38:27.983Z,40.42
2022-08-17T23:40:56.337Z,41.60
2022-08-17T23:43:25.476Z,43.45
2022-08-17T23:45:57.395Z,38.95
2022-08-17T23:48:35.307Z,40.58
2022-08-17T23:51:08.486Z,38.00
2022-08-17T23:53:36.765Z,43.63
2022-08-17T23:56:10.450Z,37.53
2022-08-17T23:58:42.889Z,25.40
